createdAt,value
2022-09-23T02:44:52.165Z,4.20
2022-09-23T02:45:53.715Z,4.14
2022-09-23T02:46:54.913Z,4.08
2022-09-23T02:47:52.880Z,4.19
2022-09-23T02:48:55.057Z,4.20
2022-09-23T02:49:52.936Z,4.20
2022-09-23T02:51:08.777Z,4.24
2022-09-23T02:52:04.320Z,4.30
2022-09-23T02:52:57.236Z,4.38
2022-09-23T02:54:00.644Z,4.40
2022-09-23T02:54:57.977Z,4.42
2022-09-23T02:55:57.266Z,4.50
2022-09-23T02:57:18.755Z,4.50
2022-09-23T02:58:20.552Z,4.38
2022-09-23T02:59:30.447Z,4.34
2022-09-23T03:00:13.662Z,4.37
2022-09-23T03:01:00.169Z,4.42
2022-09-23T03:02:03.327Z,4.31
2022-09-23T03:03:02.561Z,4.26
2022-09-23T03:04:02.301Z,4.17
2022-09-23T03:05:02.154Z,4.17
2022-09-23T03:06:00.289Z,4.19
2022-09-23T03:07:25.885Z,4.14
2022-09-23T03:07:53.387Z,4.16
2022-09-23T03:08:53.205Z,4.10
2022-09-23T03:09:53.020Z,4.12
2022-09-23T03:10:53.015Z,3.98
2022-09-23T03:11:53.014Z,4.08
2022-09-23T03:12:52.992Z,4.04
2022-09-23T03:13:52.959Z,4.10
2022-09-23T03:14:53.006Z,4.08
2022-09-23T03:15:52.965Z,4.12
2022-09-23T03:16:53.017Z,4.19
2022-09-23T03:17:52.937Z,4.14
2022-09-23T03:18:52.900Z,4.12
2022-09-23T03:19:52.942Z,4.20
2022-09-23T03:20:52.888Z,4.12
2022-09-23T03:21:52.888Z,4.13
2022-09-23T03:22:52.856Z,4.16
2022-09-23T03:23:52.854Z,4.16
2022-09-23T03:24:54.186Z,4.10
2022-09-23T03:25:53.847Z,4.20
2022-09-23T03:26:52.794Z,4.13
2022-09-23T03:27:52.831Z,4.28
2022-09-23T03:28:52.811Z,4.20
2022-09-23T03:29:53.816Z,4.06
2022-09-23T03:30:52.830Z,4.14
2022-09-23T03:31:52.852Z,4.04
2022-09-23T03:32:52.828Z,4.04
2022-09-23T03:33:52.747Z,3.88
2022-09-23T03:34:52.771Z,3.86
2022-09-23T03:35:52.720Z,3.68
2022-09-23T03:36:52.698Z,3.77
2022-09-23T03:37:52.718Z,3.65
2022-09-23T03:38:52.726Z,3.78
2022-09-23T03:39:52.705Z,3.83
2022-09-23T03:40:52.729Z,3.87
2022-09-23T03:41:52.741Z,3.92
2022-09-23T03:42:52.662Z,3.94
2022-09-23T03:43:52.662Z,3.88
2022-09-23T03:44:52.677Z,3.87
2022-09-23T03:45:53.386Z,3.95
2022-09-23T03:46:52.622Z,4.02
2022-09-23T03:47:52.630Z,4.08
2022-09-23T03:48:52.638Z,4.13
2022-09-23T03:49:52.615Z,4.12
2022-09-23T03:50:52.588Z,4.08
2022-09-23T03:51:52.593Z,4.12
2022-09-23T03:52:52.601Z,4.06
2022-09-23T03:53:52.571Z,4.17
2022-09-23T03:54:52.584Z,4.14
2022-09-23T03:55:52.562Z,4.17
2022-09-23T03:56:52.560Z,4.13
2022-09-23T03:57:52.545Z,4.10
2022-09-23T03:58:52.496Z,4.12
2022-09-23T03:59:52.519Z,4.06
2022-09-23T04:00:52.525Z,4.04
2022-09-23T04:01:52.562Z,4.06
2022-09-23T04:02:52.497Z,4.06
2022-09-23T04:03:52.452Z,4.19
2022-09-23T04:04:52.483Z,4.16
2022-09-23T04:05:52.507Z,4.22
2022-09-23T04:06:52.434Z,4.28
2022-09-23T04:07:52.413Z,4.06
2022-09-23T04:08:52.462Z,4.17
2022-09-23T04:09:52.399Z,4.30
2022-09-23T04:10:54.866Z,4.30
2022-09-23T04:11:52.397Z,4.31
2022-09-23T04:12:52.408Z,4.38
2022-09-23T04:13:52.347Z,4.37
2022-09-23T04:14:52.371Z,4.45
2022-09-23T04:15:52.368Z,4.26
2022-09-23T04:16:52.314Z,4.16
2022-09-23T04:17:52.359Z,4.19
2022-09-23T04:18:52.316Z,4.24
2022-09-23T04:19:52.327Z,4.30
2022-09-23T04:20:52.346Z,4.32
2022-09-23T04:21:52.287Z,4.40
2022-09-23T04:22:52.295Z,4.38
2022-09-23T04:23:52.301Z,4.32
2022-09-23T04:24:52.260Z,4.50
2022-09-23T04:25:52.279Z,4.53
2022-09-23T04:26:52.269Z,4.52
2022-09-23T04:27:52.198Z,4.40
2022-09-23T04:28:52.262Z,4.38
2022-09-23T04:29:52.306Z,4.32
2022-09-23T04:30:52.233Z,4.41
2022-09-23T04:31:52.276Z,4.45
2022-09-23T04:32:52.195Z,4.45
2022-09-23T04:33:52.161Z,4.55
2022-09-23T04:34:52.148Z,4.52
2022-09-23T04:35:52.142Z,4.42
2022-09-23T04:36:52.161Z,4.44
2022-09-23T04:37:52.144Z,4.38
2022-09-23T04:38:52.086Z,4.30
2022-09-23T04:39:52.112Z,4.30
2022-09-23T04:40:52.163Z,4.34
2022-09-23T04:41:52.081Z,4.41
2022-09-23T04:42:52.095Z,4.34
2022-09-23T04:43:52.056Z,4.40
2022-09-23T04:44:52.129Z,4.34
2022-09-23T04:45:52.064Z,4.41
2022-09-23T04:46:52.057Z,4.22
2022-09-23T04:47:52.065Z,4.26
2022-09-23T04:49:24.639Z,4.16
2022-09-23T04:49:54.623Z,4.23
2022-09-23T04:50:52.392Z,4.30
2022-09-23T04:51:52.116Z,4.19
2022-09-23T04:52:51.992Z,4.20
2022-09-23T04:53:52.015Z,4.24
2022-09-23T04:54:52.034Z,4.10
2022-09-23T04:55:52.049Z,4.06
2022-09-23T04:56:51.962Z,4.17
2022-09-23T04:57:52.218Z,4.16
2022-09-23T04:58:52.024Z,4.02
2022-09-23T04:59:52.195Z,4.01
2022-09-23T05:00:52.000Z,4.08
2022-09-23T05:01:52.064Z,4.05
2022-09-23T05:02:51.917Z,4.02
2022-09-23T05:04:24.529Z,4.08
2022-09-23T05:04:52.224Z,4.10
2022-09-23T05:06:26.985Z,4.10
2022-09-23T05:06:52.188Z,4.19
2022-09-23T05:07:52.115Z,4.23
2022-09-23T05:08:51.914Z,4.32
2022-09-23T05:09:51.832Z,4.34
2022-09-23T05:10:51.830Z,4.40
2022-09-23T05:11:51.797Z,4.49
2022-09-23T05:12:56.915Z,4.50
2022-09-23T05:13:53.794Z,4.55
2022-09-23T05:14:51.804Z,4.58
2022-09-23T05:15:51.868Z,4.60
2022-09-23T05:17:24.376Z,4.63
2022-09-23T05:17:52.113Z,4.63
2022-09-23T05:18:51.962Z,4.60
2022-09-23T05:19:51.739Z,4.60
2022-09-23T05:20:51.746Z,4.59
2022-09-23T05:21:51.725Z,4.58
2022-09-23T05:22:51.701Z,4.58
2022-09-23T05:23:51.685Z,4.58
2022-09-23T05:24:51.768Z,4.59
2022-09-23T05:26:26.600Z,4.60
2022-09-23T05:26:51.959Z,4.67
2022-09-23T05:28:01.296Z,4.58
2022-09-23T05:29:19.469Z,4.58
2022-09-23T05:29:52.213Z,4.58
2022-09-23T05:31:20.460Z,4.37
2022-09-23T05:31:52.144Z,4.42
2022-09-23T05:32:52.053Z,4.30
2022-09-23T05:33:52.149Z,4.34
2022-09-23T05:34:52.343Z,4.32
2022-09-23T05:36:26.220Z,4.40
2022-09-23T05:36:52.629Z,4.44
2022-09-23T05:37:51.551Z,4.58
2022-09-23T05:38:51.627Z,4.62
2022-09-23T05:39:51.649Z,4.60
2022-09-23T05:41:25.972Z,4.71
2022-09-23T05:41:52.474Z,4.75
2022-09-23T05:42:51.741Z,4.74
2022-09-23T05:43:51.573Z,4.73
2022-09-23T05:44:51.486Z,4.78
2022-09-23T05:46:27.680Z,4.82
2022-09-23T05:47:24.556Z,4.82
2022-09-23T05:47:51.894Z,4.89
2022-09-23T05:48:52.045Z,4.74
2022-09-23T05:50:00.339Z,4.86
2022-09-23T05:50:53.479Z,4.87
2022-09-23T05:51:51.442Z,4.89
2022-09-23T05:52:51.432Z,4.87
2022-09-23T05:53:51.469Z,4.94
2022-09-23T05:54:51.467Z,4.97
2022-09-23T05:55:51.545Z,5.07
2022-09-23T05:56:51.492Z,4.90
2022-09-23T06:01:01.080Z,4.92
2022-09-23T06:02:01.157Z,4.92
2022-09-23T06:03:02.825Z,4.92
2022-09-23T06:04:02.223Z,5.07
2022-09-23T06:05:02.344Z,5.20
2022-09-23T06:06:02.480Z,5.18
2022-09-23T06:07:34.813Z,5.18
2022-09-23T06:08:03.033Z,5.17
2022-09-23T06:09:42.013Z,5.20
2022-09-23T06:10:02.544Z,5.28
2022-09-23T06:11:02.692Z,5.29
2022-09-23T06:12:02.302Z,5.33
2022-09-23T06:13:35.920Z,5.50
2022-09-23T06:14:03.362Z,5.56
2022-09-23T06:15:40.930Z,5.59
2022-09-23T06:16:02.305Z,5.62
2022-09-23T06:17:02.497Z,5.65
2022-09-23T06:18:02.328Z,5.71
2022-09-23T06:19:05.425Z,5.66
2022-09-23T06:20:03.405Z,5.79
2022-09-23T06:21:02.143Z,5.93
2022-09-23T06:22:30.051Z,5.93
2022-09-23T06:23:05.144Z,5.93
2022-09-23T06:24:02.559Z,6.04
2022-09-23T06:25:02.149Z,6.05
2022-09-23T06:26:02.235Z,6.08
2022-09-23T06:27:02.190Z,6.22
2022-09-23T06:28:01.956Z,6.26
2022-09-23T06:29:01.912Z,6.27
2022-09-23T06:30:02.012Z,6.41
2022-09-23T06:31:02.010Z,6.33
2022-09-23T06:32:02.339Z,6.31
2022-09-23T06:33:37.224Z,6.41
2022-09-23T06:34:11.857Z,6.44
2022-09-23T06:35:04.433Z,6.35
2022-09-23T06:36:01.904Z,6.41
2022-09-23T06:37:12.957Z,6.52
2022-09-23T06:38:04.561Z,6.62
2022-09-23T06:39:02.195Z,6.66
2022-09-23T06:40:02.144Z,6.74
2022-09-23T06:41:01.965Z,6.74
2022-09-23T06:42:34.531Z,6.74
2022-09-23T06:43:02.131Z,6.87
2022-09-23T06:44:35.107Z,6.81
2022-09-23T06:45:03.151Z,6.95
2022-09-23T06:46:34.387Z,6.96
2022-09-23T06:47:02.104Z,7.10
2022-09-23T06:48:35.787Z,6.99
2022-09-23T06:49:44.329Z,6.99
2022-09-23T06:50:41.740Z,7.02
2022-09-23T06:51:35.489Z,7.02
2022-09-23T06:52:36.016Z,6.99
2022-09-23T06:53:02.804Z,6.96
2022-09-23T06:54:34.523Z,6.93
2022-09-23T06:55:36.188Z,6.96
2022-09-23T06:56:02.637Z,6.92
2022-09-23T06:57:46.917Z,6.97
2022-09-23T06:58:03.744Z,7.03
2022-09-23T06:59:43.329Z,6.95
2022-09-23T07:00:41.153Z,7.03
2022-09-23T07:01:02.205Z,7.10
2022-09-23T07:02:34.683Z,7.15
2022-09-23T07:03:35.203Z,7.06
2022-09-23T07:04:02.621Z,7.06
2022-09-23T07:05:29.400Z,7.07
2022-09-23T07:06:35.557Z,7.10
2022-09-23T07:07:34.207Z,7.10
2022-09-23T07:08:02.526Z,7.07
2022-09-23T07:09:28.086Z,7.13
2022-09-23T07:10:35.519Z,7.14
2022-09-23T07:11:34.004Z,7.05
2022-09-23T07:12:28.011Z,7.15
2022-09-23T07:13:35.108Z,7.20
2022-09-23T07:14:35.023Z,7.10
2022-09-23T07:15:35.204Z,7.23
2022-09-23T07:16:02.407Z,7.13
2022-09-23T07:17:34.318Z,7.13
2022-09-23T07:18:02.397Z,7.20
2022-09-23T07:19:28.091Z,7.29
2022-09-23T07:20:02.170Z,7.33
2022-09-23T07:21:34.297Z,7.31
2022-09-23T07:22:27.800Z,7.18
2022-09-23T07:23:35.120Z,7.33
2022-09-23T07:24:34.221Z,7.40
2022-09-23T07:25:29.321Z,7.42
2022-09-23T07:26:36.361Z,7.38
2022-09-23T07:27:39.900Z,7.36
2022-09-23T07:28:01.953Z,7.38
2022-09-23T07:29:44.500Z,7.48
2022-09-23T07:30:35.431Z,7.48
2022-09-23T07:31:39.048Z,7.60
2022-09-23T07:32:11.940Z,7.48
2022-09-23T07:33:42.683Z,7.67
2022-09-23T07:34:01.629Z,7.67
2022-09-23T07:35:34.985Z,7.70
2022-09-23T07:36:01.651Z,7.66
2022-09-23T07:37:27.902Z,7.57
2022-09-23T07:38:01.511Z,7.50
2022-09-23T07:39:27.757Z,7.63
2022-09-23T07:40:35.176Z,7.73
2022-09-23T07:41:01.492Z,7.72
2022-09-23T07:42:33.799Z,7.75
2022-09-23T07:43:01.399Z,7.82
2022-09-23T07:44:33.720Z,7.87
2022-09-23T07:45:01.713Z,7.97
2022-09-23T07:46:34.048Z,8.09
2022-09-23T07:47:33.655Z,8.19
2022-09-23T07:48:01.331Z,8.13
2022-09-23T07:49:33.659Z,8.15
2022-09-23T07:50:35.807Z,8.16
2022-09-23T07:51:36.257Z,8.10
2022-09-23T07:52:01.432Z,8.09
2022-09-23T07:53:33.746Z,8.06
2022-09-23T07:54:33.579Z,8.10
2022-09-23T07:55:34.729Z,8.15
2022-09-23T07:56:01.404Z,8.10
2022-09-23T07:57:01.283Z,8.23
2022-09-23T07:58:33.638Z,8.42
2022-09-23T07:59:01.342Z,8.49
2022-09-23T08:00:01.200Z,8.58
2022-09-23T08:01:00.908Z,8.71
2022-09-23T08:02:00.931Z,8.78
2022-09-23T08:03:00.980Z,8.76
2022-09-23T08:04:34.815Z,8.92
2022-09-23T08:05:01.087Z,9.00
2022-09-23T08:06:01.052Z,9.06
2022-09-23T08:07:00.904Z,9.04
2022-09-23T08:08:27.521Z,9.06
2022-09-23T08:09:34.803Z,9.18
2022-09-23T08:10:01.117Z,9.29
2022-09-23T08:12:59.136Z,9.51
2022-09-23T08:14:06.835Z,9.61
2022-09-23T08:15:00.446Z,9.74
2022-09-23T08:16:00.391Z,9.73
2022-09-23T08:17:00.175Z,9.79
2022-09-23T08:18:00.152Z,9.77
2022-09-23T08:19:00.231Z,9.66
2022-09-23T08:20:00.180Z,9.72
2022-09-23T08:21:46.966Z,9.73
2022-09-23T08:22:00.436Z,9.74
2022-09-23T08:23:00.562Z,9.94
2022-09-23T08:24:33.925Z,9.95
2022-09-23T08:25:00.405Z,9.95
2022-09-23T08:26:00.401Z,10.07
2022-09-23T08:27:00.091Z,10.22
2022-09-23T08:28:32.662Z,10.19
2022-09-23T08:29:00.323Z,10.28
2022-09-23T08:30:27.891Z,10.26
2022-09-23T08:31:32.660Z,10.25
2022-09-23T08:32:00.429Z,10.26
2022-09-23T08:33:26.653Z,10.33
2022-09-23T08:34:00.480Z,10.40
2022-09-23T08:35:35.173Z,10.59
2022-09-23T08:36:00.636Z,10.60
2022-09-23T08:37:42.593Z,10.69
2022-09-23T08:38:34.584Z,10.74
2022-09-23T08:39:00.758Z,10.64
2022-09-23T08:40:00.019Z,10.78
2022-09-23T08:40:59.989Z,10.96
2022-09-23T08:42:32.637Z,11.00
2022-09-23T08:43:26.613Z,10.97
2022-09-23T08:44:33.601Z,11.02
2022-09-23T08:45:26.531Z,11.07
2022-09-23T08:46:32.566Z,11.11
2022-09-23T08:47:00.274Z,11.11
2022-09-23T08:48:26.651Z,11.17
2022-09-23T08:49:35.210Z,11.29
2022-09-23T08:50:32.473Z,11.41
2022-09-23T08:51:00.630Z,11.41
2022-09-23T08:52:32.474Z,11.62
2022-09-23T08:53:38.324Z,11.70
2022-09-23T08:54:35.938Z,11.81
2022-09-23T08:55:32.460Z,11.90
2022-09-23T08:56:00.152Z,12.02
2022-09-23T08:56:59.886Z,11.99
2022-09-23T08:58:32.376Z,12.15
2022-09-23T08:59:33.407Z,12.12
2022-09-23T09:00:00.117Z,12.10
2022-09-23T09:00:59.942Z,12.04
2022-09-23T09:01:59.785Z,12.15
2022-09-23T09:02:59.741Z,12.28
2022-09-23T09:03:59.738Z,12.28
2022-09-23T09:05:34.493Z,12.29
2022-09-23T09:05:59.985Z,12.36
2022-09-23T09:07:43.804Z,12.47
2022-09-23T09:08:07.015Z,12.54
2022-09-23T09:09:05.801Z,12.55
2022-09-23T09:10:02.836Z,12.58
2022-09-23T09:15:09.787Z,12.49
2022-09-23T09:16:10.118Z,12.55
2022-09-23T09:17:13.366Z,12.67
2022-09-23T09:18:21.005Z,12.78
2022-09-23T09:19:19.065Z,12.76
2022-09-23T09:20:10.949Z,12.87
2022-09-23T09:21:10.833Z,12.93
2022-09-23T09:22:10.856Z,13.09
2022-09-23T09:23:15.566Z,13.22
2022-09-23T09:24:10.808Z,13.27
2022-09-23T09:25:14.384Z,13.35
2022-09-23T09:26:18.877Z,13.49
2022-09-23T09:27:12.864Z,13.60
2022-09-23T09:28:26.988Z,13.68
2022-09-23T09:29:31.123Z,13.85
2022-09-23T09:30:12.887Z,13.90
2022-09-23T09:31:31.926Z,14.17
2022-09-23T09:32:31.290Z,14.04
2022-09-23T09:33:31.103Z,14.04
2022-09-23T09:34:16.410Z,13.79
2022-09-23T09:35:11.032Z,13.96
2022-09-23T09:36:13.651Z,13.97
2022-09-23T09:37:34.505Z,14.11
2022-09-23T09:39:21.769Z,14.18
2022-09-23T09:40:15.934Z,14.25
2022-09-23T09:40:53.360Z,14.33
2022-09-23T09:41:54.702Z,14.41
2022-09-23T09:42:31.378Z,14.58
2022-09-23T09:43:38.841Z,14.63
2022-09-23T09:45:44.085Z,14.79
2022-09-23T09:45:57.931Z,14.91
2022-09-23T09:47:14.377Z,15.10
2022-09-23T09:48:03.620Z,15.15
2022-09-23T09:49:08.676Z,15.27
2022-09-23T09:50:06.068Z,15.37
2022-09-23T09:51:41.720Z,15.54
2022-09-23T09:52:11.351Z,15.55
2022-09-23T09:55:09.077Z,15.47
2022-09-23T09:56:06.137Z,15.55
2022-09-23T09:58:11.825Z,15.68
2022-09-23T09:58:16.055Z,15.90
2022-09-23T09:59:16.380Z,15.98
2022-09-23T10:02:25.900Z,15.97
2022-09-23T10:03:30.664Z,15.97
2022-09-23T10:04:54.157Z,15.86
2022-09-23T10:05:42.539Z,15.95
2022-09-23T10:06:31.222Z,16.21
2022-09-23T10:07:27.307Z,16.33
2022-09-23T10:10:29.131Z,16.31
2022-09-23T10:10:32.720Z,16.33
2022-09-23T10:13:49.036Z,16.42
2022-09-23T10:14:49.376Z,16.53
2022-09-23T10:15:51.827Z,16.61
2022-09-23T10:16:55.485Z,16.76
2022-09-23T10:17:52.443Z,16.94
2022-09-23T10:19:01.500Z,17.06
2022-09-23T10:19:50.439Z,17.15
2022-09-23T10:20:50.154Z,17.41
2022-09-23T10:21:50.105Z,17.44
2022-09-23T10:22:56.721Z,17.48
2022-09-23T10:23:51.241Z,17.44
2022-09-23T10:24:54.422Z,17.46
2022-09-23T10:25:50.785Z,17.44
2022-09-23T10:29:13.912Z,17.14
2022-09-23T10:30:17.318Z,17.11
2022-09-23T10:33:29.456Z,16.43
2022-09-23T10:37:41.676Z,16.69
2022-09-23T10:38:41.828Z,17.06
2022-09-23T10:39:42.139Z,17.08
2022-09-23T10:40:41.999Z,17.39
2022-09-23T10:41:43.664Z,17.60
2022-09-23T10:42:42.791Z,17.82
2022-09-23T10:43:46.041Z,17.80
2022-09-23T10:44:51.597Z,17.72
2022-09-23T10:45:43.464Z,17.89
2022-09-23T10:46:43.400Z,17.83
2022-09-23T10:47:45.957Z,17.83
2022-09-23T10:48:50.673Z,17.98
2022-09-23T10:49:45.286Z,18.18
2022-09-23T10:51:21.633Z,18.28
2022-09-23T10:52:10.558Z,18.43
2022-09-23T10:52:53.611Z,18.33
2022-09-23T10:55:46.828Z,18.70
2022-09-23T10:56:58.852Z,18.86
2022-09-23T10:57:48.888Z,19.02
2022-09-23T10:58:47.944Z,19.09
2022-09-23T11:02:27.869Z,18.70
2022-09-23T11:03:41.261Z,18.75
2022-09-23T11:05:08.114Z,18.96
2022-09-23T11:06:09.833Z,18.96
2022-09-23T11:07:12.990Z,18.92
2022-09-23T11:07:47.680Z,18.95
2022-09-23T11:08:30.733Z,19.04
2022-09-23T11:16:48.373Z,19.63
2022-09-23T11:17:48.700Z,19.99
2022-09-23T11:18:56.298Z,19.82
2022-09-23T11:19:50.853Z,19.81
2022-09-23T11:25:26.681Z,18.93
2022-09-23T11:28:33.320Z,18.66
2022-09-23T11:29:42.136Z,18.86
2022-09-23T11:32:01.975Z,18.83
2022-09-23T11:34:01.837Z,19.26
2022-09-23T11:35:01.726Z,19.36
2022-09-23T11:36:02.039Z,19.37
2022-09-23T11:37:03.388Z,19.37
2022-09-23T11:39:28.730Z,19.41
2022-09-23T11:45:26.362Z,19.37
2022-09-23T11:46:39.754Z,19.16
2022-09-23T11:50:39.085Z,19.56
2022-09-23T11:51:40.288Z,19.73
2022-09-23T11:52:46.462Z,19.64
2022-09-23T11:53:39.678Z,19.91
2022-09-23T11:56:30.582Z,20.06
2022-09-23T11:57:21.372Z,20.13
2022-09-23T11:59:45.302Z,20.55
2022-09-23T12:00:51.479Z,20.44
2022-09-23T12:03:52.940Z,20.00
2022-09-23T12:08:47.847Z,19.31
2022-09-23T12:10:35.957Z,19.18
2022-09-23T12:10:57.185Z,19.49
2022-09-23T12:12:21.910Z,19.77
2022-09-23T12:12:54.166Z,19.70
2022-09-23T12:15:25.376Z,20.11
2022-09-23T12:16:25.740Z,20.29
2022-09-23T12:17:26.357Z,20.31
2022-09-23T12:20:04.544Z,20.18
2022-09-23T12:21:27.429Z,19.96
2022-09-23T12:22:07.056Z,19.95
2022-09-23T12:23:04.583Z,20.02
2022-09-23T12:24:04.495Z,20.29
2022-09-23T12:25:06.090Z,20.48
2022-09-23T12:28:12.023Z,20.00
2022-09-23T12:32:23.949Z,20.19
2022-09-23T12:35:03.656Z,20.03
2022-09-23T12:36:03.623Z,19.96
2022-09-23T12:37:12.976Z,20.06
2022-09-23T12:39:39.005Z,19.66
2022-09-23T12:40:48.621Z,19.82
2022-09-23T12:41:38.815Z,19.88
2022-09-23T12:42:46.344Z,19.82
2022-09-23T12:48:39.224Z,19.79
2022-09-23T12:49:41.662Z,19.86
2022-09-23T12:50:48.805Z,19.73
2022-09-23T12:54:03.232Z,20.13
2022-09-23T12:55:12.294Z,20.26
2022-09-23T12:58:17.102Z,20.66
2022-09-23T12:59:54.782Z,20.88
2022-09-23T13:00:46.181Z,20.50
2022-09-23T13:01:54.987Z,20.26
2022-09-23T13:02:53.933Z,20.18
2022-09-23T13:04:02.865Z,20.41
2022-09-23T13:04:31.548Z,20.41
2022-09-23T13:07:32.075Z,19.76
2022-09-23T13:08:40.441Z,19.76
2022-09-23T13:11:28.423Z,20.04
2022-09-23T13:14:28.750Z,20.31
2022-09-23T13:15:29.849Z,20.16
2022-09-23T13:16:29.080Z,20.37
2022-09-23T13:18:02.004Z,20.39
2022-09-23T13:22:17.840Z,20.41
2022-09-23T13:23:37.318Z,20.26
2022-09-23T13:26:34.490Z,20.21
2022-09-23T13:30:27.442Z,20.47
2022-09-23T13:33:30.637Z,20.47
2022-09-23T13:34:30.967Z,20.39
2022-09-23T13:37:28.237Z,21.12
2022-09-23T13:39:56.109Z,22.11
2022-09-23T13:40:59.897Z,22.04
2022-09-23T13:42:37.682Z,21.46
2022-09-23T13:42:58.935Z,21.48
2022-09-23T13:46:52.556Z,21.43
2022-09-23T13:48:28.561Z,21.72
2022-09-23T13:49:21.621Z,21.95
2022-09-23T13:49:54.061Z,21.93
2022-09-23T13:51:27.390Z,21.96
2022-09-23T13:54:09.319Z,21.05
2022-09-23T13:57:07.171Z,20.02
2022-09-23T13:58:41.466Z,19.91
2022-09-23T13:59:38.286Z,19.94
2022-09-23T14:03:38.368Z,19.15
2022-09-23T14:06:17.620Z,19.18
2022-09-23T14:07:46.511Z,19.15
2022-09-23T14:08:51.468Z,19.14
2022-09-23T14:09:19.412Z,18.98
2022-09-23T14:12:24.301Z,18.96
2022-09-23T14:13:58.094Z,19.00
2022-09-23T14:14:27.168Z,18.95
2022-09-23T14:17:58.321Z,18.60
2022-09-23T14:19:27.142Z,18.60
2022-09-23T14:19:59.722Z,18.66
2022-09-23T14:21:00.158Z,18.81
2022-09-23T14:22:32.946Z,18.83
2022-09-23T14:22:59.734Z,18.77
2022-09-23T14:23:59.924Z,18.80
2022-09-23T14:25:33.395Z,18.83
2022-09-23T14:25:59.694Z,18.90
2022-09-23T14:26:59.909Z,18.95
2022-09-23T14:28:00.578Z,19.08
2022-09-23T14:29:00.254Z,19.02
2022-09-23T14:29:59.281Z,19.12
2022-09-23T14:30:59.257Z,18.88
2022-09-23T14:31:59.181Z,18.86
2022-09-23T14:32:59.260Z,18.63
2022-09-23T14:33:59.472Z,18.60
2022-09-23T14:34:59.222Z,18.45
2022-09-23T14:35:59.308Z,18.49
2022-09-23T14:36:59.196Z,18.47
2022-09-23T14:37:59.275Z,18.55
2022-09-23T14:38:59.177Z,18.50
2022-09-23T14:39:59.229Z,18.50
2022-09-23T14:40:59.535Z,18.53
2022-09-23T14:41:59.123Z,18.49
2022-09-23T14:42:59.158Z,18.44
2022-09-23T14:43:59.178Z,18.45
2022-09-23T14:44:59.266Z,18.40
2022-09-23T14:45:59.390Z,18.40
2022-09-23T14:46:59.280Z,18.23
2022-09-23T14:47:59.251Z,18.23
2022-09-23T14:48:59.142Z,18.11
2022-09-23T14:49:59.090Z,18.20
2022-09-23T14:50:59.282Z,18.26
2022-09-23T14:51:59.238Z,18.15
2022-09-23T14:52:59.277Z,18.25
2022-09-23T14:54:33.303Z,18.16
2022-09-23T14:55:00.122Z,18.10
2022-09-23T14:58:03.172Z,18.15
2022-09-23T14:59:03.387Z,18.13
2022-09-23T15:00:03.145Z,18.04
2022-09-23T15:01:03.277Z,18.01
2022-09-23T15:02:03.094Z,18.04
2022-09-23T15:03:03.100Z,17.94
2022-09-23T15:04:04.254Z,18.00
2022-09-23T15:05:04.226Z,18.03
2022-09-23T15:06:08.511Z,18.01
2022-09-23T15:07:05.180Z,18.00
2022-09-23T15:08:04.185Z,18.08
2022-09-23T15:09:04.135Z,18.07
2022-09-23T15:10:04.170Z,18.01
2022-09-23T15:11:07.869Z,18.10
2022-09-23T15:12:05.139Z,18.04
2022-09-23T15:13:04.127Z,18.07
2022-09-23T15:14:33.087Z,18.15
2022-09-23T15:15:06.103Z,18.10
2022-09-23T15:16:04.145Z,18.10
2022-09-23T15:17:04.111Z,18.13
2022-09-23T15:18:04.035Z,17.97
2022-09-23T15:19:04.109Z,18.01
2022-09-23T15:20:04.090Z,17.95
2022-09-23T15:21:04.002Z,17.94
2022-09-23T15:22:04.070Z,17.86
2022-09-23T15:23:04.022Z,17.80
2022-09-23T15:24:04.033Z,17.86
2022-09-23T15:25:03.991Z,17.87
2022-09-23T15:26:04.001Z,17.86
2022-09-23T15:27:04.016Z,17.74
2022-09-23T15:28:03.939Z,17.78
2022-09-23T15:29:03.997Z,17.78
2022-09-23T15:30:03.960Z,17.72
2022-09-23T15:31:03.953Z,17.82
2022-09-23T15:32:04.022Z,17.68
2022-09-23T15:33:03.963Z,17.70
2022-09-23T15:34:03.910Z,17.70
2022-09-23T15:35:04.181Z,17.51
2022-09-23T15:36:03.949Z,17.63
2022-09-23T15:37:03.884Z,17.57
2022-09-23T15:38:03.928Z,17.46
2022-09-23T15:39:03.948Z,17.48
2022-09-23T15:40:03.965Z,17.48
2022-09-23T15:41:03.975Z,17.44
2022-09-23T15:42:03.900Z,17.46
2022-09-23T15:43:03.848Z,17.45
2022-09-23T15:44:03.889Z,17.41
2022-09-23T15:45:03.788Z,17.34
2022-09-23T15:46:03.918Z,17.44
2022-09-23T15:47:03.788Z,17.49
2022-09-23T15:48:03.752Z,17.48
2022-09-23T15:49:03.748Z,17.34
2022-09-23T15:50:03.797Z,17.39
2022-09-23T15:51:03.791Z,17.34
2022-09-23T15:52:03.751Z,17.41
2022-09-23T15:53:03.716Z,17.34
2022-09-23T15:54:03.655Z,17.33
2022-09-23T15:55:04.657Z,17.38
2022-09-23T15:56:03.682Z,17.36
2022-09-23T15:57:03.687Z,17.29
2022-09-23T15:58:03.660Z,17.19
2022-09-23T15:59:03.653Z,17.27
2022-09-23T16:00:03.741Z,17.24
2022-09-23T16:01:03.744Z,17.16
2022-09-23T16:02:03.664Z,17.14
2022-09-23T16:03:03.592Z,17.16
2022-09-23T16:04:03.743Z,17.22
2022-09-23T16:05:03.596Z,17.20
2022-09-23T16:06:03.606Z,17.08
2022-09-23T16:07:03.607Z,16.99
2022-09-23T16:08:08.542Z,17.05
2022-09-23T16:09:05.619Z,17.01
2022-09-23T16:10:03.703Z,16.93
2022-09-23T16:11:03.548Z,16.89
2022-09-23T16:12:03.542Z,16.93
2022-09-23T16:13:03.495Z,16.89
2022-09-23T16:14:03.499Z,16.83
2022-09-23T16:15:03.522Z,16.86
2022-09-23T16:16:03.560Z,16.91
2022-09-23T16:17:03.482Z,16.93
2022-09-23T16:18:03.432Z,16.81
2022-09-23T16:19:03.539Z,16.84
2022-09-23T16:20:03.428Z,16.83
2022-09-23T16:21:03.502Z,16.79
2022-09-23T16:22:03.418Z,16.78
2022-09-23T16:23:03.405Z,16.72
2022-09-23T16:24:03.428Z,16.68
2022-09-23T16:25:03.364Z,16.71
2022-09-23T16:26:03.369Z,16.74
2022-09-23T16:27:03.393Z,16.64
2022-09-23T16:28:03.383Z,16.64
2022-09-23T16:29:03.417Z,16.60
2022-09-23T16:30:03.309Z,16.68
2022-09-23T16:31:03.340Z,16.61
2022-09-23T16:32:03.329Z,16.56
2022-09-23T16:33:03.306Z,16.64
2022-09-23T16:34:03.328Z,16.60
2022-09-23T16:35:03.280Z,16.61
2022-09-23T16:36:03.307Z,16.42
2022-09-23T16:37:03.295Z,16.47
2022-09-23T16:38:03.286Z,16.49
2022-09-23T16:39:03.248Z,16.36
2022-09-23T16:40:03.285Z,16.36
2022-09-23T16:41:03.310Z,16.26
2022-09-23T16:42:03.200Z,16.23
2022-09-23T16:43:03.323Z,16.24
2022-09-23T16:44:03.202Z,16.26
2022-09-23T16:45:04.216Z,16.23
2022-09-23T16:46:03.273Z,16.17
2022-09-23T16:47:03.179Z,16.10
2022-09-23T16:48:03.167Z,16.16
2022-09-23T16:49:03.304Z,16.05
2022-09-23T16:50:03.108Z,16.00
2022-09-23T16:51:03.121Z,16.09
2022-09-23T16:52:03.129Z,15.98
2022-09-23T16:53:03.071Z,16.00
2022-09-23T16:54:03.097Z,15.95
2022-09-23T16:55:03.140Z,15.94
2022-09-23T16:56:03.066Z,15.80
2022-09-23T16:57:03.069Z,15.80
2022-09-23T16:58:03.062Z,15.82
2022-09-23T16:59:03.081Z,15.77
2022-09-23T17:00:03.041Z,15.67
2022-09-23T17:01:03.139Z,15.65
2022-09-23T17:02:03.146Z,15.62
2022-09-23T17:03:03.047Z,15.70
2022-09-23T17:04:03.004Z,15.55
2022-09-23T17:05:02.979Z,15.68
2022-09-23T17:06:07.790Z,15.65
2022-09-23T17:07:04.973Z,15.62
2022-09-23T17:08:02.983Z,15.62
2022-09-23T17:09:03.000Z,15.58
2022-09-23T17:10:02.959Z,15.52
2022-09-23T17:11:02.964Z,15.49
2022-09-23T17:12:02.933Z,15.58
2022-09-23T17:13:02.891Z,15.54
2022-09-23T17:14:02.940Z,15.54
2022-09-23T17:15:02.849Z,15.47
2022-09-23T17:16:02.978Z,15.44
2022-09-23T17:17:02.877Z,15.49
2022-09-23T17:18:02.913Z,15.54
2022-09-23T17:19:02.902Z,15.59
2022-09-23T17:20:02.890Z,15.55
2022-09-23T17:21:02.826Z,15.68
2022-09-23T17:22:02.805Z,15.61
2022-09-23T17:23:02.831Z,15.55
2022-09-23T17:24:02.805Z,15.49
2022-09-23T17:25:02.794Z,15.51
2022-09-23T17:26:02.803Z,15.51
2022-09-23T17:27:02.775Z,15.35
2022-09-23T17:28:02.755Z,15.42
2022-09-23T17:29:02.865Z,15.49
2022-09-23T17:30:02.739Z,15.43
2022-09-23T17:31:02.742Z,15.39
2022-09-23T17:32:02.768Z,15.47
2022-09-23T17:33:02.694Z,15.54
2022-09-23T17:34:02.684Z,15.54
2022-09-23T17:35:02.668Z,15.52
2022-09-23T17:36:02.729Z,15.51
2022-09-23T17:37:02.657Z,15.59
2022-09-23T17:38:02.654Z,15.55
2022-09-23T17:39:02.772Z,15.58
2022-09-23T17:40:02.621Z,15.54
2022-09-23T17:41:02.700Z,15.51
2022-09-23T17:42:02.615Z,15.49
2022-09-23T17:43:02.621Z,15.37
2022-09-23T17:44:02.575Z,15.35
2022-09-23T17:45:02.564Z,15.40
2022-09-23T17:46:02.751Z,15.42
2022-09-23T17:47:02.569Z,15.43
2022-09-23T17:48:02.564Z,15.33
2022-09-23T17:49:02.588Z,15.31
2022-09-23T17:50:03.294Z,15.39
2022-09-23T17:51:02.523Z,15.39
2022-09-23T17:52:02.575Z,15.33
2022-09-23T17:53:02.539Z,15.24
2022-09-23T17:54:02.485Z,15.21
2022-09-23T17:55:02.514Z,14.94